createdAt,value
2022-09-01T00:00:15.179Z,102165.13
2022-09-01T00:02:44.676Z,102157.13
2022-09-01T00:05:12.958Z,102160.63
2022-09-01T00:07:42.354Z,102158.88
2022-09-01T00:10:11.482Z,102154.44
2022-09-01T00:12:40.153Z,102139.09
2022-09-01T00:15:11.636Z,102146.38
2022-09-01T00:17:40.077Z,102153.69
2022-09-01T00:20:09.380Z,102153.69
2022-09-01T00:22:37.571Z,102151.94
2022-09-01T00:25:08.154Z,102145.63
2022-09-01T00:27:36.723Z,102143.03
2022-09-01T00:30:06.335Z,102120.06
2022-09-01T00:32:34.374Z,102145.81
2022-09-01T00:35:02.381Z,102150.31
2022-09-01T00:37:30.436Z,102126.69
2022-09-01T00:39:58.592Z,102139.56
2022-09-01T00:42:28.104Z,102141.41
2022-09-01T00:44:56.088Z,102133.53
2022-09-01T00:47:24.603Z,102139.66
2022-09-01T00:49:53.308Z,102141.41
2022-09-01T00:52:28.761Z,102142.16
2022-09-01T00:55:01.228Z,102149.25
2022-09-01T00:57:30.869Z,102139.38
2022-09-01T01:00:01.978Z,102145.63
2022-09-01T01:02:30.132Z,102145.72
2022-09-01T01:04:59.485Z,102143.03
2022-09-01T01:07:29.174Z,102151.88
2022-09-01T01:09:57.756Z,102141.97
2022-09-01T01:12:30.093Z,102148.41
2022-09-01T01:14:59.546Z,102146.56
2022-09-01T01:17:27.573Z,102148.41
2022-09-01T01:20:15.205Z,102146.47
2022-09-01T01:23:06.564Z,102148.31
2022-09-01T01:25:42.577Z,102149.25
2022-09-01T01:28:15.919Z,102144.75
2022-09-01T01:30:52.425Z,102147.44
2022-09-01T01:33:22.329Z,102142.91
2022-09-01T01:35:53.709Z,102152.72
2022-09-01T01:38:22.939Z,102149.06
2022-09-01T01:40:56.051Z,102137.34
2022-09-01T01:43:26.512Z,102134.66
2022-09-01T01:45:56.824Z,102139.19
2022-09-01T01:48:30.045Z,102141.97
2022-09-01T01:50:59.689Z,102135.63
2022-09-01T01:53:29.099Z,102133.22
2022-09-01T01:56:00.113Z,102127.72
2022-09-01T01:58:32.689Z,102138.41
2022-09-01T02:01:01.035Z,102133.03
2022-09-01T02:03:38.597Z,102124.09
2022-09-01T02:06:09.836Z,102118.03
2022-09-01T02:08:40.826Z,102125.16
2022-09-01T02:11:13.240Z,102130.53
2022-09-01T02:13:41.296Z,102132.34
2022-09-01T02:16:13.161Z,102136.88
2022-09-01T02:18:48.065Z,102138.72
2022-09-01T02:21:20.280Z,102138.72
2022-09-01T02:23:50.520Z,102137.84
2022-09-01T02:26:23.878Z,102141.28
2022-09-01T02:28:55.191Z,102143.97
2022-09-01T02:31:28.517Z,102137.72
2022-09-01T02:34:01.164Z,102136.03
2022-09-01T02:36:32.856Z,102137.66
2022-09-01T02:39:01.733Z,102139.47
2022-09-01T02:41:34.437Z,102132.16
2022-09-01T02:44:04.073Z,102127.72
2022-09-01T02:46:32.534Z,102116.97
2022-09-01T02:49:04.617Z,102124.09
2022-09-01T02:51:33.399Z,102124.09
2022-09-01T02:54:01.909Z,102131.22
2022-09-01T02:56:31.362Z,102136.47
2022-09-01T02:59:00.241Z,102131.22
2022-09-01T03:01:31.033Z,102134.66
2022-09-01T03:04:03.100Z,102129.16
2022-09-01T03:06:34.272Z,102137.25
2022-09-01T03:09:05.650Z,102141.78
2022-09-01T03:11:36.544Z,102142.53
2022-09-01T03:14:05.653Z,102144.38
2022-09-01T03:16:33.720Z,102129.16
2022-09-01T03:19:04.010Z,102136.41
2022-09-01T03:21:32.630Z,102143.59
2022-09-01T03:24:02.210Z,102139.19
2022-09-01T03:26:31.897Z,102110.66
2022-09-01T03:29:01.939Z,102146.28
2022-09-01T03:31:31.522Z,102143.78
2022-09-01T03:34:03.462Z,102155.50
2022-09-01T03:36:35.454Z,102141.19
2022-09-01T03:39:03.636Z,102146.66
2022-09-01T03:41:33.225Z,102146.78
2022-09-01T03:44:02.502Z,102151.19
2022-09-01T03:46:36.927Z,102146.00
2022-09-01T03:49:08.147Z,102147.25
2022-09-01T03:51:39.404Z,102150.53
2022-09-01T03:54:09.176Z,102155.03
2022-09-01T03:56:41.794Z,102149.84
2022-09-01T03:59:17.773Z,102156.97
2022-09-01T04:01:47.717Z,102146.22
2022-09-01T04:04:17.005Z,102148.78
2022-09-01T04:06:46.865Z,102138.13
2022-09-01T04:09:15.995Z,102146.22
2022-09-01T04:11:47.015Z,102152.44
2022-09-01T04:14:18.109Z,102151.47
2022-09-01T04:17:05.693Z,102146.22
2022-09-01T04:19:39.380Z,102143.41
2022-09-01T04:22:14.492Z,102146.97
2022-09-01T04:24:46.757Z,102149.66
2022-09-01T04:27:18.119Z,102142.47
2022-09-01T04:29:48.510Z,102137.16
2022-09-01T04:32:17.181Z,102146.97
2022-09-01T04:34:51.064Z,102139.66
2022-09-01T04:37:21.783Z,102112.00
2022-09-01T04:39:59.244Z,102145.81
2022-09-01T04:42:32.574Z,102148.41
2022-09-01T04:45:10.484Z,102149.25
2022-09-01T04:47:42.160Z,102149.25
2022-09-01T04:50:17.449Z,102154.63
2022-09-01T04:53:07.164Z,102152.91
2022-09-01T04:55:44.604Z,102158.31
2022-09-01T04:58:17.473Z,102159.06
2022-09-01T05:00:49.693Z,102150.03
2022-09-01T05:03:21.605Z,102144.28
2022-09-01T05:05:55.898Z,102152.72
2022-09-01T05:08:24.989Z,102124.31
2022-09-01T05:10:57.055Z,102158.13
2022-09-01T05:13:39.756Z,102157.25
2022-09-01T05:16:13.327Z,102157.13
2022-09-01T05:18:47.848Z,102140.63
2022-09-01T05:21:18.984Z,102158.88
2022-09-01T05:23:48.759Z,102154.25
2022-09-01T05:26:18.962Z,102160.50
2022-09-01T05:28:49.584Z,102167.63
2022-09-01T05:31:19.855Z,102167.63
2022-09-01T05:33:48.524Z,102165.78
2022-09-01T05:36:20.247Z,102169.16
2022-09-01T05:38:49.027Z,102165.59
2022-09-01T05:41:20.369Z,102168.09
2022-09-01T05:43:55.188Z,102169.81
2022-09-01T05:46:28.372Z,102175.09
2022-09-01T05:48:58.522Z,102174.16
2022-09-01T05:51:45.996Z,102174.06
2022-09-01T05:54:18.905Z,102174.81
2022-09-01T05:56:47.269Z,102169.25
2022-09-01T05:59:24.451Z,102171.88
2022-09-01T06:01:58.059Z,102176.19
2022-09-01T06:04:27.835Z,102165.31
2022-09-01T06:07:06.728Z,102176.84
2022-09-01T06:09:39.786Z,102176.63
2022-09-01T06:12:09.240Z,102176.63
2022-09-01T06:14:37.307Z,102173.88
2022-09-01T06:17:07.524Z,102177.41
2022-09-01T06:19:37.429Z,102168.50
2022-09-01T06:22:06.090Z,102171.94
2022-09-01T06:24:34.601Z,102172.81
2022-09-01T06:27:02.564Z,102173.66
2022-09-01T06:29:31.388Z,102175.38
2022-09-01T06:32:02.344Z,102166.38
2022-09-01T06:34:36.201Z,102168.00
2022-09-01T06:37:04.490Z,102159.91
2022-09-01T06:39:34.455Z,102166.13
2022-09-01T06:42:05.958Z,102162.50
2022-09-01T06:44:46.026Z,102159.91
2022-09-01T06:47:15.517Z,102124.09
2022-09-01T06:49:45.057Z,102162.31
2022-09-01T06:52:20.898Z,102163.16
2022-09-01T06:54:52.226Z,102153.25
2022-09-01T07:00:18.823Z,102131.56
2022-09-01T07:02:50.328Z,102155.66
2022-09-01T07:06:08.955Z,102167.06
2022-09-01T07:12:24.339Z,102164.19
2022-09-01T07:17:44.209Z,102166.38
2022-09-01T07:20:28.486Z,102160.69
2022-09-01T07:23:04.387Z,102163.16
2022-09-01T07:26:01.362Z,102172.78
2022-09-01T07:28:41.658Z,102172.78
2022-09-01T07:39:54.992Z,102179.41
2022-09-01T07:45:59.132Z,102144.94
2022-09-01T07:49:01.293Z,102184.66
2022-09-01T07:51:36.898Z,102182.88
2022-09-01T07:54:05.688Z,102184.66
2022-09-01T07:56:39.718Z,102178.38
2022-09-01T07:59:15.253Z,102183.78
2022-09-01T08:02:06.149Z,102171.31
2022-09-01T08:04:34.917Z,102177.38
2022-09-01T08:07:05.760Z,102173.72
2022-09-01T08:09:43.838Z,102176.31
2022-09-01T08:12:14.963Z,102170.72
2022-09-01T08:17:58.363Z,102173.34
2022-09-01T08:20:30.651Z,102165.13
2022-09-01T08:23:10.765Z,102165.88
2022-09-01T08:25:42.144Z,102176.34
2022-09-01T08:28:12.590Z,102142.38
2022-09-01T08:30:47.155Z,102146.69
2022-09-01T08:33:22.675Z,102180.47
2022-09-01T08:35:52.074Z,102208.06
2022-09-01T08:38:20.746Z,102216.91
2022-09-01T08:40:57.099Z,102203.34
2022-09-01T08:43:46.589Z,102204.31
2022-09-01T08:46:21.035Z,102201.63
2022-09-01T08:52:12.441Z,102200.94
2022-09-01T08:54:46.734Z,102195.66
2022-09-01T08:57:22.872Z,102193.09
2022-09-01T09:00:30.441Z,102166.31
2022-09-01T09:03:15.508Z,102184.75
2022-09-01T09:05:53.765Z,102183.88
2022-09-01T09:08:45.898Z,102192.94
2022-09-01T09:11:26.819Z,102184.00
2022-09-01T09:14:04.192Z,102165.25
2022-09-01T09:16:38.471Z,102180.34
2022-09-01T09:19:11.068Z,102176.84
2022-09-01T09:21:41.461Z,102188.50
2022-09-01T09:24:18.136Z,102185.72
2022-09-01T09:26:50.711Z,102178.47
2022-09-01T09:29:20.750Z,102181.09
2022-09-01T09:31:50.805Z,102181.84
2022-09-01T09:34:32.781Z,102175.38
2022-09-01T09:37:16.906Z,102160.81
2022-09-01T09:39:45.273Z,102174.44
2022-09-01T09:42:16.130Z,102172.50
2022-09-01T09:44:51.152Z,102170.75
2022-09-01T09:47:45.128Z,102179.81
2022-09-01T09:50:26.946Z,102174.50
2022-09-01T09:53:12.503Z,102171.94
2022-09-01T09:55:56.048Z,102181.84
2022-09-01T09:58:26.610Z,102184.66
2022-09-01T10:01:07.928Z,102177.41
2022-09-01T10:03:44.500Z,102172.16
2022-09-01T10:06:15.209Z,102157.91
2022-09-01T10:08:45.944Z,102170.41
2022-09-01T10:11:33.415Z,102156.09
2022-09-01T10:14:07.305Z,102159.63
2022-09-01T10:16:42.534Z,102166.63
2022-09-01T10:19:16.226Z,102146.59
2022-09-01T10:21:46.710Z,102153.28
2022-09-01T10:24:22.293Z,102163.84
2022-09-01T10:26:58.033Z,102159.41
2022-09-01T10:29:34.846Z,102153.47
2022-09-01T10:32:30.740Z,102162.13
2022-09-01T10:34:59.816Z,102163.09
2022-09-01T10:37:28.481Z,102163.94
2022-09-01T10:40:20.541Z,102165.81
2022-09-01T10:42:53.952Z,102158.88
2022-09-01T10:45:32.962Z,102158.66
2022-09-01T10:48:31.167Z,102156.84
2022-09-01T10:51:38.894Z,102163.19
2022-09-01T10:54:09.554Z,102170.41
2022-09-01T10:56:44.373Z,102164.06
2022-09-01T10:59:32.685Z,102164.06
2022-09-01T11:02:29.475Z,102170.31
2022-09-01T11:05:16.592Z,102162.31
2022-09-01T11:08:03.147Z,102161.47
2022-09-01T11:10:47.716Z,102171.19
2022-09-01T11:13:32.613Z,102130.81
2022-09-01T11:19:36.171Z,102160.50
2022-09-01T11:22:12.862Z,102172.16
2022-09-01T11:24:58.086Z,102171.28
2022-09-01T11:27:58.930Z,102182.16
2022-09-01T11:30:37.284Z,102122.72
2022-09-01T11:33:27.722Z,102168.78
2022-09-01T11:36:01.620Z,102188.63
2022-09-01T11:38:39.242Z,102176.78
2022-09-01T11:41:07.934Z,102171.38
2022-09-01T11:43:37.701Z,102181.09
2022-09-01T11:46:16.631Z,102184.44
2022-09-01T11:48:47.713Z,102181.72
2022-09-01T11:51:21.441Z,102179.28
2022-09-01T11:53:50.503Z,102181.72
2022-09-01T11:56:21.856Z,102172.56
2022-09-01T11:58:51.154Z,102171.53
2022-09-01T12:01:21.087Z,102176.94
2022-09-01T12:03:51.273Z,102170.56
2022-09-01T12:06:24.738Z,102181.13
2022-09-01T12:08:57.182Z,102177.47
2022-09-01T12:11:30.430Z,102171.09
2022-09-01T12:14:04.725Z,102170.16
2022-09-01T12:16:38.017Z,102169.28
2022-09-01T12:19:07.294Z,102171.78
2022-09-01T12:21:38.299Z,102164.56
2022-09-01T12:24:16.975Z,102160.53
2022-09-01T12:26:45.924Z,102167.25
2022-09-01T12:29:17.045Z,102170.78
2022-09-01T12:31:47.014Z,102156.56
2022-09-01T12:34:27.963Z,102156.66
2022-09-01T12:37:09.128Z,102155.06
2022-09-01T12:39:39.592Z,102154.38
2022-09-01T12:42:24.323Z,102156.22
2022-09-01T12:44:57.218Z,102146.63
2022-09-01T12:47:51.021Z,102148.31
2022-09-01T12:50:53.724Z,102143.25
2022-09-01T12:53:25.804Z,102119.53
2022-09-01T12:56:00.968Z,102140.56
2022-09-01T12:58:31.911Z,102142.38
2022-09-01T13:01:05.236Z,102151.66
2022-09-01T13:03:34.574Z,102151.47
2022-09-01T13:06:04.639Z,102155.97
2022-09-01T13:08:34.734Z,102140.78
2022-09-01T13:11:06.176Z,102152.53
2022-09-01T13:13:35.302Z,102148.84
2022-09-01T13:16:10.615Z,102153.16
2022-09-01T13:21:27.603Z,102176.56
2022-09-01T13:23:55.590Z,102172.03
2022-09-01T13:26:24.144Z,102192.50
2022-09-01T13:28:53.077Z,102183.03
2022-09-01T13:31:30.212Z,102184.66
2022-09-01T13:34:22.055Z,102182.81
2022-09-01T13:36:51.503Z,102149.97
2022-09-01T13:39:20.990Z,102175.72
2022-09-01T13:41:49.357Z,102173.00
2022-09-01T13:44:18.537Z,102177.53
2022-09-01T13:50:05.099Z,102166.00
2022-09-01T13:52:24.357Z,102168.69
2022-09-01T13:54:52.220Z,102165.13
2022-09-01T13:57:20.099Z,102166.00
2022-09-01T13:59:47.973Z,102166.88
2022-09-01T14:02:17.293Z,102161.25
2022-09-01T14:04:46.385Z,102164.06
2022-09-01T14:07:16.103Z,102161.47
2022-09-01T14:09:43.980Z,102151.19
2022-09-01T14:12:12.384Z,102155.44
2022-09-01T14:17:29.745Z,102149.56
2022-09-01T14:19:58.352Z,102154.13
2022-09-01T14:22:26.215Z,102147.91
2022-09-01T14:24:54.253Z,102149.09
2022-09-01T14:27:22.604Z,102149.84
2022-09-01T14:29:55.002Z,102149.84
2022-09-01T14:32:27.060Z,102151.69
2022-09-01T14:34:57.740Z,102142.09
2022-09-01T14:37:26.085Z,102150.06
2022-09-01T14:39:55.115Z,102143.84
2022-09-01T14:42:24.035Z,102141.13
2022-09-01T14:44:51.924Z,102139.28
2022-09-01T14:47:22.217Z,102133.25
2022-09-01T14:49:50.185Z,102147.16
2022-09-01T14:52:21.289Z,102141.78
2022-09-01T14:54:49.837Z,102148.03
2022-09-01T14:57:37.411Z,102147.06
2022-09-01T15:00:10.134Z,102143.50
2022-09-01T15:02:38.355Z,102146.97
2022-09-01T15:05:07.726Z,102146.03
2022-09-01T15:07:37.785Z,102126.69
2022-09-01T15:10:07.513Z,102142.38
2022-09-01T15:12:35.725Z,102138.72
2022-09-01T15:15:03.785Z,102140.53
2022-09-01T15:17:31.857Z,102142.28
2022-09-01T15:20:20.264Z,102139.47
2022-09-01T15:22:50.482Z,102145.72
2022-09-01T15:25:18.756Z,102140.41
2022-09-01T15:27:47.120Z,102143.13
2022-09-01T15:30:17.186Z,102101.34
2022-09-01T15:32:46.432Z,102141.28
2022-09-01T15:35:15.391Z,102117.91
2022-09-01T15:37:44.001Z,102136.88
2022-09-01T15:40:13.820Z,102135.91
2022-09-01T15:42:41.798Z,102131.59
2022-09-01T15:45:16.135Z,102141.41
2022-09-01T15:47:45.949Z,102140.66
2022-09-01T15:50:21.477Z,102148.75
2022-09-01T15:52:53.848Z,102136.19
2022-09-01T15:55:25.556Z,102136.19
2022-09-01T15:57:55.095Z,102140.81
2022-09-01T16:00:25.309Z,102134.56
2022-09-01T16:02:54.499Z,102136.59
2022-09-01T16:05:22.794Z,102135.84
2022-09-01T16:07:52.668Z,102137.97
2022-09-01T16:10:21.510Z,102136.22
2022-09-01T16:12:51.809Z,102134.72
2022-09-01T16:15:22.753Z,102133.97
2022-09-01T16:18:07.351Z,102137.63
2022-09-01T16:20:38.843Z,102143.31
2022-09-01T16:23:17.129Z,102141.69
2022-09-01T16:25:46.402Z,102140.94
2022-09-01T16:28:24.070Z,102136.69
2022-09-01T16:30:53.688Z,102137.88
2022-09-01T16:33:21.715Z,102131.16
2022-09-01T16:36:06.981Z,102081.81
2022-09-01T16:38:47.501Z,102133.84
2022-09-01T16:41:28.461Z,102136.66
2022-09-01T16:44:06.823Z,102146.53
2022-09-01T16:46:43.282Z,102143.78
2022-09-01T16:49:20.072Z,102146.34
2022-09-01T16:51:57.337Z,102141.91
2022-09-01T16:54:37.785Z,102144.59
2022-09-01T16:57:13.485Z,102137.50
2022-09-01T16:59:52.029Z,102129.38
2022-09-01T17:02:38.444Z,102145.59
2022-09-01T17:05:18.012Z,102152.78
2022-09-01T17:07:52.997Z,102145.66
2022-09-01T17:10:32.825Z,102150.09
2022-09-01T17:13:17.322Z,102149.34
2022-09-01T17:15:51.886Z,102143.97
2022-09-01T17:18:29.761Z,102154.81
2022-09-01T17:21:03.318Z,102144.16
2022-09-01T17:23:38.243Z,102146.97
2022-09-01T17:26:15.349Z,102149.66
2022-09-01T17:28:48.932Z,102155.97
2022-09-01T17:31:30.638Z,102152.53
2022-09-01T17:34:10.285Z,102150.97
2022-09-01T17:36:47.411Z,102148.50
2022-09-01T17:39:28.376Z,102158.59
2022-09-01T17:42:01.038Z,102159.75
2022-09-01T17:44:37.509Z,102159.81
2022-09-01T17:47:17.693Z,102159.25
2022-09-01T17:49:54.800Z,102162.13
2022-09-01T17:52:37.254Z,102169.44
2022-09-01T17:55:14.092Z,102165.13
2022-09-01T17:57:47.746Z,102163.50
2022-09-01T18:00:23.457Z,102158.31
2022-09-01T18:03:14.942Z,102165.50
2022-09-01T18:05:46.448Z,102166.66
2022-09-01T18:08:30.641Z,102161.38
2022-09-01T18:11:02.350Z,102157.81
2022-09-01T18:13:52.489Z,102162.25
2022-09-01T18:16:24.767Z,102156.97
2022-09-01T18:18:54.826Z,102159.53
2022-09-01T18:21:27.480Z,102147.34
2022-09-01T18:24:02.790Z,102161.38
2022-09-01T18:26:36.307Z,102159.53
2022-09-01T18:29:06.434Z,102129.50
2022-09-01T18:31:56.753Z,102159.66
2022-09-01T18:34:35.419Z,102164.25
2022-09-01T18:37:12.109Z,102161.56
2022-09-01T18:39:51.413Z,102169.63
2022-09-01T18:42:26.356Z,102168.75
2022-09-01T18:45:05.742Z,102091.75
2022-09-01T18:47:36.466Z,102170.78
2022-09-01T18:50:11.919Z,102173.47
2022-09-01T18:52:52.590Z,102187.09
2022-09-01T18:55:28.029Z,102145.53
2022-09-01T18:57:58.905Z,102185.66
2022-09-01T19:00:35.132Z,102184.91
2022-09-01T19:03:12.341Z,102184.13
2022-09-01T19:05:54.493Z,102182.56
2022-09-01T19:08:31.955Z,102188.13
2022-09-01T19:11:09.229Z,102188.25
2022-09-01T19:13:53.414Z,102197.16
2022-09-01T19:16:33.542Z,102192.94
2022-09-01T19:19:10.181Z,102192.16
2022-09-01T19:21:39.740Z,102197.81
2022-09-01T19:24:13.178Z,102195.91
2022-09-01T19:26:44.476Z,102192.44
2022-09-01T19:29:17.627Z,102196.00
2022-09-01T19:31:49.232Z,102192.44
2022-09-01T19:34:22.517Z,102194.09
2022-09-01T19:36:57.555Z,102184.28
2022-09-01T19:39:28.632Z,102185.25
2022-09-01T19:42:04.870Z,102185.03
2022-09-01T19:44:42.406Z,102189.56
2022-09-01T19:47:16.780Z,102190.41
2022-09-01T19:49:52.584Z,102180.94
2022-09-01T19:52:32.386Z,102193.09
2022-09-01T19:55:04.747Z,102192.34
2022-09-01T19:57:40.697Z,102194.16
2022-09-01T20:00:14.481Z,102194.09
2022-09-01T20:02:48.121Z,102192.44
2022-09-01T20:05:27.003Z,102191.69
2022-09-01T20:08:02.288Z,102198.00
2022-09-01T20:10:56.684Z,102194.63
2022-09-01T20:13:38.860Z,102190.22
2022-09-01T20:16:19.995Z,102193.97
2022-09-01T20:18:51.098Z,102187.75
2022-09-01T20:21:21.984Z,102184.31
2022-09-01T20:23:58.661Z,102189.59
2022-09-01T20:26:32.748Z,102187.09
2022-09-01T20:29:06.929Z,102188.81
2022-09-01T20:31:40.422Z,102192.28
2022-09-01T20:34:15.206Z,102197.56
2022-09-01T20:36:47.313Z,102196.53
2022-09-01T20:39:36.441Z,102200.97
2022-09-01T20:42:09.180Z,102196.47
2022-09-01T20:44:44.582Z,102194.56
2022-09-01T20:47:13.246Z,102159.06
2022-09-01T20:49:41.640Z,102191.88
2022-09-01T20:52:16.456Z,102201.56
2022-09-01T20:54:53.810Z,102201.44
2022-09-01T20:57:31.488Z,102195.22
2022-09-01T21:00:03.758Z,102198.69
2022-09-01T21:02:43.193Z,102191.56
2022-09-01T21:05:22.147Z,102193.09
2022-09-01T21:08:01.043Z,102190.41
2022-09-01T21:10:38.610Z,102190.41
2022-09-01T21:13:20.673Z,102192.16
2022-09-01T21:15:59.309Z,102194.97
2022-09-01T21:18:41.989Z,102187.84
2022-09-01T21:21:18.964Z,102193.22
2022-09-01T21:23:46.981Z,102191.47
2022-09-01T21:26:16.344Z,102183.50
2022-09-01T21:28:48.104Z,102189.84
2022-09-01T21:31:16.467Z,102192.44
2022-09-01T21:33:44.489Z,102195.13
2022-09-01T21:36:12.695Z,102183.03
2022-09-01T21:38:40.704Z,102200.69
2022-09-01T21:41:13.005Z,102202.44
2022-09-01T21:43:46.356Z,102200.59
2022-09-01T21:46:16.433Z,102200.69
2022-09-01T21:48:44.681Z,102198.94
2022-09-01T21:51:12.765Z,102199.94
2022-09-01T21:53:40.738Z,102202.44
2022-09-01T21:56:08.911Z,102204.25
2022-09-01T21:58:38.521Z,102192.19
2022-09-01T22:01:08.036Z,102206.75
2022-09-01T22:03:38.696Z,102205.88
2022-09-01T22:06:06.761Z,102200.59
2022-09-01T22:08:34.738Z,102202.31
2022-09-01T22:11:02.688Z,102200.50
2022-09-01T22:13:30.648Z,102196.84
2022-09-01T22:15:58.575Z,102195.91
2022-09-01T22:18:28.013Z,102189.66
2022-09-01T22:21:02.965Z,102203.97
2022-09-01T22:23:31.009Z,102202.22
2022-09-01T22:25:59.080Z,102193.22
2022-09-01T22:28:27.406Z,102191.41
2022-09-01T22:30:55.410Z,102193.22
2022-09-01T22:33:25.101Z,102193.97
2022-09-01T22:35:57.365Z,102188.72
2022-09-01T22:38:25.337Z,102191.47
2022-09-01T22:40:55.447Z,102182.47
2022-09-01T22:43:24.407Z,102189.56
2022-09-01T22:45:53.321Z,102189.56
2022-09-01T22:48:25.533Z,102178.72
2022-09-01T22:50:55.279Z,102185.91
2022-09-01T22:53:23.704Z,102179.00
2022-09-01T22:55:52.705Z,102187.84
2022-09-01T22:58:21.509Z,102180.94
2022-09-01T23:00:52.414Z,102185.25
2022-09-01T23:03:21.937Z,102191.47
2022-09-01T23:05:50.830Z,102184.38
2022-09-01T23:08:20.165Z,102191.56
2022-09-01T23:10:48.297Z,102187.16
2022-09-01T23:13:17.261Z,102186.31
2022-09-01T23:15:45.288Z,102189.00
2022-09-01T23:18:13.272Z,102184.56
2022-09-01T23:20:41.300Z,102193.50
2022-09-01T23:23:09.297Z,102189.94
2022-09-01T23:25:39.395Z,102184.47
2022-09-01T23:28:09.966Z,102187.16
2022-09-01T23:30:38.238Z,102180.94
2022-09-01T23:33:06.301Z,102184.38
2022-09-01T23:35:34.334Z,102179.00
2022-09-01T23:38:02.286Z,102183.50
2022-09-01T23:40:30.390Z,102179.00
2022-09-01T23:42:59.741Z,102174.50
2022-09-01T23:45:29.819Z,102183.41
2022-09-01T23:48:04.157Z,102186.09
2022-09-01T23:50:32.167Z,102185.25
2022-09-01T23:53:00.130Z,102186.97
2022-09-01T23:55:28.135Z,102194.16
2022-09-01T23:57:56.035Z,102190.53
